sensor_id;sensor_type;location;lat;lon;timestamp;temperature;humidity
7720;DHT22;3902;49.474;8.616;2022-11-20T00:01:48;6.40;99.90
7720;DHT22;3902;49.474;8.616;2022-11-20T00:04:13;6.40;99.90
7720;DHT22;3902;49.474;8.616;2022-11-20T00:06:39;6.40;99.90
7720;DHT22;3902;49.474;8.616;2022-11-20T00:09:05;6.50;99.90
7720;DHT22;3902;49.474;8.616;2022-11-20T00:11:31;6.40;99.90
7720;DHT22;3902;49.474;8.616;2022-11-20T00:13:59;6.30;99.90
7720;DHT22;3902;49.474;8.616;2022-11-20T00:16:27;6.20;99.90
7720;DHT22;3902;49.474;8.616;2022-11-20T00:18:53;6.10;99.90
7720;DHT22;3902;49.474;8.616;2022-11-20T00:21:21;6.30;99.90
7720;DHT22;3902;49.474;8.616;2022-11-20T00:23:47;6.30;99.90
7720;DHT22;3902;49.474;8.616;2022-11-20T00:26:15;6.30;99.90
7720;DHT22;3902;49.474;8.616;2022-11-20T00:28:43;6.20;99.90
7720;DHT22;3902;49.474;8.616;2022-11-20T00:31:14;6.30;99.90
7720;DHT22;3902;49.474;8.616;2022-11-20T00:33:41;6.40;99.90
7720;DHT22;3902;49.474;8.616;2022-11-20T00:36:09;6.40;99.90
7720;DHT22;3902;49.474;8.616;2022-11-20T00:38:35;6.40;99.90
7720;DHT22;3902;49.474;8.616;2022-11-20T00:41:04;6.40;99.90
7720;DHT22;3902;49.474;8.616;2022-11-20T00:43:30;6.50;99.90
7720;DHT22;3902;49.474;8.616;2022-11-20T00:45:59;6.50;99.90
7720;DHT22;3902;49.474;8.616;2022-11-20T00:48:26;6.50;99.90
7720;DHT22;3902;49.474;8.616;2022-11-20T00:50:52;6.50;99.90
7720;DHT22;3902;49.474;8.616;2022-11-20T00:53:17;6.50;99.90
7720;DHT22;3902;49.474;8.616;2022-11-20T00:55:43;6.50;99.90
7720;DHT22;3902;49.474;8.616;2022-11-20T00:58:17;6.50;99.90
7720;DHT22;3902;49.474;8.616;2022-11-20T01:00:42;6.50;99.90
7720;DHT22;3902;49.474;8.616;2022-11-20T01:03:08;6.60;99.90
7720;DHT22;3902;49.474;8.616;2022-11-20T01:05:34;6.60;99.90
7720;DHT22;3902;49.474;8.616;2022-11-20T01:08:00;6.50;99.90
7720;DHT22;3902;49.474;8.616;2022-11-20T01:10:26;6.50;99.90
7720;DHT22;3902;49.474;8.616;2022-11-20T01:12:51;6.50;99.90
7720;DHT22;3902;49.474;8.616;2022-11-20T01:15:37;6.50;99.90
7720;DHT22;3902;49.474;8.616;2022-11-20T01:18:02;6.50;99.90
7720;DHT22;3902;49.474;8.616;2022-11-20T01:20:28;6.50;99.90
7720;DHT22;3902;49.474;8.616;2022-11-20T01:22:53;6.40;99.90
7720;DHT22;3902;49.474;8.616;2022-11-20T01:25:19;6.40;99.90
7720;DHT22;3902;49.474;8.616;2022-11-20T01:27:44;6.30;99.90
7720;DHT22;3902;49.474;8.616;2022-11-20T01:30:10;6.40;99.90
7720;DHT22;3902;49.474;8.616;2022-11-20T01:32:36;6.40;99.90
7720;DHT22;3902;49.474;8.616;2022-11-20T01:35:02;6.50;99.90
7720;DHT22;3902;49.474;8.616;2022-11-20T01:37:27;6.50;99.90
7720;DHT22;3902;49.474;8.616;2022-11-20T01:39:53;6.50;99.90
7720;DHT22;3902;49.474;8.616;2022-11-20T01:42:18;6.50;99.90
7720;DHT22;3902;49.474;8.616;2022-11-20T01:48:07;6.50;99.90
7720;DHT22;3902;49.474;8.616;2022-11-20T01:50:32;6.50;99.90
7720;DHT22;3902;49.474;8.616;2022-11-20T01:53:05;6.50;99.90
7720;DHT22;3902;49.474;8.616;2022-11-20T01:55:36;6.50;99.90
7720;DHT22;3902;49.474;8.616;2022-11-20T01:58:02;6.50;99.90
7720;DHT22;3902;49.474;8.616;2022-11-20T02:00:28;6.50;99.90
7720;DHT22;3902;49.474;8.616;2022-11-20T02:03:03;6.50;99.90
7720;DHT22;3902;49.474;8.616;2022-11-20T02:05:53;6.60;99.90
7720;DHT22;3902;49.474;8.616;2022-11-20T02:08:21;6.50;99.90
7720;DHT22;3902;49.474;8.616;2022-11-20T02:10:47;6.60;99.90
7720;DHT22;3902;49.474;8.616;2022-11-20T02:13:12;6.60;99.90
7720;DHT22;3902;49.474;8.616;2022-11-20T02:15:56;6.60;99.90
7720;DHT22;3902;49.474;8.616;2022-11-20T02:18:23;6.60;99.90
7720;DHT22;3902;49.474;8.616;2022-11-20T02:20:54;6.50;99.90
7720;DHT22;3902;49.474;8.616;2022-11-20T02:23:24;6.50;99.90
7720;DHT22;3902;49.474;8.616;2022-11-20T02:25:52;6.60;99.90
7720;DHT22;3902;49.474;8.616;2022-11-20T02:28:19;6.60;99.90
7720;DHT22;3902;49.474;8.616;2022-11-20T02:30:44;6.60;99.90
7720;DHT22;3902;49.474;8.616;2022-11-20T02:33:10;6.60;99.90
7720;DHT22;3902;49.474;8.616;2022-11-20T02:38:02;6.50;99.90
7720;DHT22;3902;49.474;8.616;2022-11-20T02:40:28;6.50;99.90
7720;DHT22;3902;49.474;8.616;2022-11-20T02:42:55;6.50;99.90
7720;DHT22;3902;49.474;8.616;2022-11-20T02:45:21;6.40;99.90
7720;DHT22;3902;49.474;8.616;2022-11-20T02:47:46;6.40;99.90
7720;DHT22;3902;49.474;8.616;2022-11-20T02:50:12;6.40;99.90
7720;DHT22;3902;49.474;8.616;2022-11-20T02:52:38;6.50;99.90
7720;DHT22;3902;49.474;8.616;2022-11-20T02:55:04;6.50;99.90
7720;DHT22;3902;49.474;8.616;2022-11-20T02:57:29;6.50;99.90
7720;DHT22;3902;49.474;8.616;2022-11-20T02:59:55;6.50;99.90
7720;DHT22;3902;49.474;8.616;2022-11-20T03:02:21;6.50;99.90
7720;DHT22;3902;49.474;8.616;2022-11-20T03:04:46;6.50;99.90
7720;DHT22;3902;49.474;8.616;2022-11-20T03:07:12;6.50;99.90
7720;DHT22;3902;49.474;8.616;2022-11-20T03:09:37;6.50;99.90
7720;DHT22;3902;49.474;8.616;2022-11-20T03:12:03;6.60;99.90
7720;DHT22;3902;49.474;8.616;2022-11-20T03:14:29;6.50;99.90
7720;DHT22;3902;49.474;8.616;2022-11-20T03:16:55;6.50;99.90
7720;DHT22;3902;49.474;8.616;2022-11-20T03:19:21;6.40;99.90
7720;DHT22;3902;49.474;8.616;2022-11-20T03:21:46;6.50;99.90
7720;DHT22;3902;49.474;8.616;2022-11-20T03:24:12;6.40;99.90
7720;DHT22;3902;49.474;8.616;2022-11-20T03:26:39;6.50;99.90
7720;DHT22;3902;49.474;8.616;2022-11-20T03:29:04;6.50;99.90
7720;DHT22;3902;49.474;8.616;2022-11-20T03:31:36;6.50;99.90
7720;DHT22;3902;49.474;8.616;2022-11-20T03:34:02;6.50;99.90
7720;DHT22;3902;49.474;8.616;2022-11-20T03:36:28;6.50;99.90
7720;DHT22;3902;49.474;8.616;2022-11-20T03:38:55;6.50;99.90
7720;DHT22;3902;49.474;8.616;2022-11-20T03:41:25;6.50;99.90
7720;DHT22;3902;49.474;8.616;2022-11-20T03:44:11;6.60;99.90
7720;DHT22;3902;49.474;8.616;2022-11-20T03:46:37;6.50;99.90
7720;DHT22;3902;49.474;8.616;2022-11-20T03:49:03;6.60;99.90
7720;DHT22;3902;49.474;8.616;2022-11-20T03:51:30;6.60;99.90
7720;DHT22;3902;49.474;8.616;2022-11-20T03:53:58;6.60;99.90
7720;DHT22;3902;49.474;8.616;2022-11-20T03:56:31;6.60;99.90
7720;DHT22;3902;49.474;8.616;2022-11-20T03:58:57;6.60;99.90
7720;DHT22;3902;49.474;8.616;2022-11-20T04:01:29;6.60;99.90
7720;DHT22;3902;49.474;8.616;2022-11-20T04:03:56;6.50;99.90
7720;DHT22;3902;49.474;8.616;2022-11-20T04:06:27;6.50;99.90
7720;DHT22;3902;49.474;8.616;2022-11-20T04:08:59;6.50;99.90
7720;DHT22;3902;49.474;8.616;2022-11-20T04:11:30;6.60;99.90
7720;DHT22;3902;49.474;8.616;2022-11-20T04:14:01;6.60;99.90
7720;DHT22;3902;49.474;8.616;2022-11-20T04:16:31;6.60;99.90
7720;DHT22;3902;49.474;8.616;2022-11-20T04:18:59;6.60;99.90
7720;DHT22;3902;49.474;8.616;2022-11-20T04:21:25;6.60;99.90
7720;DHT22;3902;49.474;8.616;2022-11-20T04:23:52;6.70;99.90
7720;DHT22;3902;49.474;8.616;2022-11-20T04:26:18;6.70;99.90
7720;DHT22;3902;49.474;8.616;2022-11-20T04:28:44;6.70;99.90
7720;DHT22;3902;49.474;8.616;2022-11-20T04:31:12;6.70;99.90
7720;DHT22;3902;49.474;8.616;2022-11-20T04:33:38;6.70;99.90
7720;DHT22;3902;49.474;8.616;2022-11-20T04:36:10;6.80;99.90
7720;DHT22;3902;49.474;8.616;2022-11-20T04:38:36;6.80;99.90
7720;DHT22;3902;49.474;8.616;2022-11-20T04:41:05;6.80;99.90
7720;DHT22;3902;49.474;8.616;2022-11-20T04:43:31;6.80;99.90
7720;DHT22;3902;49.474;8.616;2022-11-20T04:45:58;6.80;99.90
7720;DHT22;3902;49.474;8.616;2022-11-20T04:48:25;6.80;99.90
7720;DHT22;3902;49.474;8.616;2022-11-20T04:50:51;6.80;99.90
7720;DHT22;3902;49.474;8.616;2022-11-20T04:53:17;6.90;99.90
7720;DHT22;3902;49.474;8.616;2022-11-20T04:55:43;6.90;99.90
7720;DHT22;3902;49.474;8.616;2022-11-20T04:58:08;6.90;99.90
7720;DHT22;3902;49.474;8.616;2022-11-20T05:00:34;6.80;99.90
7720;DHT22;3902;49.474;8.616;2022-11-20T05:03:00;6.80;99.90
7720;DHT22;3902;49.474;8.616;2022-11-20T05:05:25;6.80;99.90
7720;DHT22;3902;49.474;8.616;2022-11-20T05:07:51;6.90;99.90
7720;DHT22;3902;49.474;8.616;2022-11-20T05:10:16;6.90;99.90
7720;DHT22;3902;49.474;8.616;2022-11-20T05:12:42;6.90;99.90
7720;DHT22;3902;49.474;8.616;2022-11-20T05:15:08;6.90;99.90
7720;DHT22;3902;49.474;8.616;2022-11-20T05:17:33;6.90;99.90
7720;DHT22;3902;49.474;8.616;2022-11-20T05:19:59;6.90;99.90
7720;DHT22;3902;49.474;8.616;2022-11-20T05:22:25;6.90;99.90
7720;DHT22;3902;49.474;8.616;2022-11-20T05:24:50;6.90;99.90
7720;DHT22;3902;49.474;8.616;2022-11-20T05:27:16;6.90;99.90
7720;DHT22;3902;49.474;8.616;2022-11-20T05:29:41;6.90;99.90
7720;DHT22;3902;49.474;8.616;2022-11-20T05:32:07;6.90;99.90
7720;DHT22;3902;49.474;8.616;2022-11-20T05:34:35;7.00;99.90
7720;DHT22;3902;49.474;8.616;2022-11-20T05:37:01;6.90;99.90
7720;DHT22;3902;49.474;8.616;2022-11-20T05:39:27;6.90;99.90
7720;DHT22;3902;49.474;8.616;2022-11-20T05:41:52;7.00;99.90
7720;DHT22;3902;49.474;8.616;2022-11-20T05:44:38;7.00;99.90
7720;DHT22;3902;49.474;8.616;2022-11-20T05:47:04;7.00;99.90
7720;DHT22;3902;49.474;8.616;2022-11-20T05:49:29;7.00;99.90
7720;DHT22;3902;49.474;8.616;2022-11-20T05:51:55;7.00;99.90
7720;DHT22;3902;49.474;8.616;2022-11-20T05:54:20;7.00;99.90
7720;DHT22;3902;49.474;8.616;2022-11-20T05:56:46;7.00;99.90
7720;DHT22;3902;49.474;8.616;2022-11-20T05:59:11;7.10;99.90
7720;DHT22;3902;49.474;8.616;2022-11-20T06:01:37;7.00;99.90
7720;DHT22;3902;49.474;8.616;2022-11-20T06:04:02;7.10;99.90
7720;DHT22;3902;49.474;8.616;2022-11-20T06:06:28;7.00;99.90
7720;DHT22;3902;49.474;8.616;2022-11-20T06:08:54;7.00;99.90
7720;DHT22;3902;49.474;8.616;2022-11-20T06:11:20;7.10;99.90
7720;DHT22;3902;49.474;8.616;2022-11-20T06:13:46;7.10;99.90
7720;DHT22;3902;49.474;8.616;2022-11-20T06:16:16;7.10;99.90
7720;DHT22;3902;49.474;8.616;2022-11-20T06:18:41;7.10;99.90
7720;DHT22;3902;49.474;8.616;2022-11-20T06:21:13;7.10;99.90
7720;DHT22;3902;49.474;8.616;2022-11-20T06:23:39;7.10;99.90
7720;DHT22;3902;49.474;8.616;2022-11-20T06:26:10;7.10;99.90
7720;DHT22;3902;49.474;8.616;2022-11-20T06:28:37;7.10;99.90
7720;DHT22;3902;49.474;8.616;2022-11-20T06:31:02;7.10;99.90
7720;DHT22;3902;49.474;8.616;2022-11-20T06:33:29;7.10;99.90
7720;DHT22;3902;49.474;8.616;2022-11-20T06:35:59;7.10;99.90
7720;DHT22;3902;49.474;8.616;2022-11-20T06:38:25;7.10;99.90
7720;DHT22;3902;49.474;8.616;2022-11-20T06:40:51;7.10;99.90
7720;DHT22;3902;49.474;8.616;2022-11-20T06:43:17;7.10;99.90
7720;DHT22;3902;49.474;8.616;2022-11-20T06:45:42;7.20;99.90
7720;DHT22;3902;49.474;8.616;2022-11-20T06:48:08;7.20;99.90
7720;DHT22;3902;49.474;8.616;2022-11-20T06:50:38;7.20;99.90
7720;DHT22;3902;49.474;8.616;2022-11-20T06:53:04;7.20;99.90
7720;DHT22;3902;49.474;8.616;2022-11-20T06:55:31;7.20;99.90
7720;DHT22;3902;49.474;8.616;2022-11-20T06:57:57;7.20;99.90
7720;DHT22;3902;49.474;8.616;2022-11-20T07:00:22;7.20;99.90
7720;DHT22;3902;49.474;8.616;2022-11-20T07:02:48;7.20;99.90
7720;DHT22;3902;49.474;8.616;2022-11-20T07:05:14;7.20;99.90
7720;DHT22;3902;49.474;8.616;2022-11-20T07:07:39;7.20;99.90
7720;DHT22;3902;49.474;8.616;2022-11-20T07:10:05;7.20;99.90
7720;DHT22;3902;49.474;8.616;2022-11-20T07:12:31;7.30;99.90
7720;DHT22;3902;49.474;8.616;2022-11-20T07:14:57;7.30;99.90
7720;DHT22;3902;49.474;8.616;2022-11-20T07:17:22;7.30;99.90
7720;DHT22;3902;49.474;8.616;2022-11-20T07:19:48;7.30;99.90
7720;DHT22;3902;49.474;8.616;2022-11-20T07:22:13;7.30;99.90
7720;DHT22;3902;49.474;8.616;2022-11-20T07:24:39;7.30;99.90
7720;DHT22;3902;49.474;8.616;2022-11-20T07:27:05;7.30;99.90
7720;DHT22;3902;49.474;8.616;2022-11-20T07:29:30;7.30;99.90
7720;DHT22;3902;49.474;8.616;2022-11-20T07:31:56;7.40;99.90
7720;DHT22;3902;49.474;8.616;2022-11-20T07:34:22;7.40;99.90
7720;DHT22;3902;49.474;8.616;2022-11-20T07:36:48;7.40;99.90
7720;DHT22;3902;49.474;8.616;2022-11-20T07:39:13;7.40;99.90
7720;DHT22;3902;49.474;8.616;2022-11-20T07:41:39;7.40;99.90
7720;DHT22;3902;49.474;8.616;2022-11-20T07:44:04;7.50;99.90
7720;DHT22;3902;49.474;8.616;2022-11-20T07:46:30;7.50;99.90
7720;DHT22;3902;49.474;8.616;2022-11-20T07:48:56;7.50;99.90
7720;DHT22;3902;49.474;8.616;2022-11-20T07:51:21;7.50;99.90
7720;DHT22;3902;49.474;8.616;2022-11-20T07:53:47;7.50;99.90
7720;DHT22;3902;49.474;8.616;2022-11-20T07:56:12;7.50;99.90
7720;DHT22;3902;49.474;8.616;2022-11-20T07:58:39;7.60;99.90
7720;DHT22;3902;49.474;8.616;2022-11-20T08:01:06;7.60;99.90
7720;DHT22;3902;49.474;8.616;2022-11-20T08:03:32;7.60;99.90
7720;DHT22;3902;49.474;8.616;2022-11-20T08:05:59;7.60;99.90
7720;DHT22;3902;49.474;8.616;2022-11-20T08:08:26;7.60;99.90
7720;DHT22;3902;49.474;8.616;2022-11-20T08:10:51;7.60;99.90
7720;DHT22;3902;49.474;8.616;2022-11-20T08:13:17;7.60;99.90
7720;DHT22;3902;49.474;8.616;2022-11-20T08:16:01;7.60;99.90
7720;DHT22;3902;49.474;8.616;2022-11-20T08:18:26;7.70;99.90
7720;DHT22;3902;49.474;8.616;2022-11-20T08:20:52;7.70;99.90
7720;DHT22;3902;49.474;8.616;2022-11-20T08:23:17;7.70;99.90
7720;DHT22;3902;49.474;8.616;2022-11-20T08:25:43;7.70;99.90
7720;DHT22;3902;49.474;8.616;2022-11-20T08:28:09;7.70;99.90
7720;DHT22;3902;49.474;8.616;2022-11-20T08:30:35;7.80;99.90
7720;DHT22;3902;49.474;8.616;2022-11-20T08:33:09;7.80;99.90
7720;DHT22;3902;49.474;8.616;2022-11-20T08:35:37;7.80;99.90
7720;DHT22;3902;49.474;8.616;2022-11-20T08:38:04;7.80;99.90
7720;DHT22;3902;49.474;8.616;2022-11-20T08:40:30;7.80;99.90
7720;DHT22;3902;49.474;8.616;2022-11-20T08:42:56;7.70;99.90
7720;DHT22;3902;49.474;8.616;2022-11-20T08:45:22;7.70;99.90
7720;DHT22;3902;49.474;8.616;2022-11-20T08:47:47;7.70;99.90
7720;DHT22;3902;49.474;8.616;2022-11-20T08:50:15;7.70;99.90
7720;DHT22;3902;49.474;8.616;2022-11-20T08:52:41;7.70;99.90
7720;DHT22;3902;49.474;8.616;2022-11-20T08:55:07;7.70;99.90
7720;DHT22;3902;49.474;8.616;2022-11-20T08:57:34;7.70;99.90
7720;DHT22;3902;49.474;8.616;2022-11-20T09:00:00;7.80;99.90
7720;DHT22;3902;49.474;8.616;2022-11-20T09:02:26;7.80;99.90
7720;DHT22;3902;49.474;8.616;2022-11-20T09:04:51;7.80;99.90
7720;DHT22;3902;49.474;8.616;2022-11-20T09:07:19;7.80;99.90
7720;DHT22;3902;49.474;8.616;2022-11-20T09:09:44;7.80;99.90
7720;DHT22;3902;49.474;8.616;2022-11-20T09:12:10;7.80;99.90
7720;DHT22;3902;49.474;8.616;2022-11-20T09:14:35;7.80;99.90
7720;DHT22;3902;49.474;8.616;2022-11-20T09:17:01;7.80;99.90
7720;DHT22;3902;49.474;8.616;2022-11-20T09:19:27;7.80;99.90
7720;DHT22;3902;49.474;8.616;2022-11-20T09:21:52;7.90;99.90
7720;DHT22;3902;49.474;8.616;2022-11-20T09:24:18;7.90;99.90
7720;DHT22;3902;49.474;8.616;2022-11-20T09:26:44;7.90;99.90
7720;DHT22;3902;49.474;8.616;2022-11-20T09:29:09;7.90;99.90
7720;DHT22;3902;49.474;8.616;2022-11-20T09:31:36;7.90;99.90
7720;DHT22;3902;49.474;8.616;2022-11-20T09:34:01;7.90;99.90
7720;DHT22;3902;49.474;8.616;2022-11-20T09:36:27;7.90;99.90
7720;DHT22;3902;49.474;8.616;2022-11-20T09:38:52;7.90;99.90
7720;DHT22;3902;49.474;8.616;2022-11-20T09:47:28;7.90;99.90
7720;DHT22;3902;49.474;8.616;2022-11-20T09:50:14;7.90;99.90
7720;DHT22;3902;49.474;8.616;2022-11-20T09:55:34;7.90;99.90
7720;DHT22;3902;49.474;8.616;2022-11-20T09:58:00;7.90;99.90
7720;DHT22;3902;49.474;8.616;2022-11-20T10:00:28;7.90;99.90
7720;DHT22;3902;49.474;8.616;2022-11-20T10:05:36;7.90;99.90
7720;DHT22;3902;49.474;8.616;2022-11-20T10:08:19;7.90;99.90
7720;DHT22;3902;49.474;8.616;2022-11-20T10:10:50;7.90;99.90
7720;DHT22;3902;49.474;8.616;2022-11-20T10:18:44;7.90;99.90
7720;DHT22;3902;49.474;8.616;2022-11-20T10:29:31;7.90;99.90
7720;DHT22;3902;49.474;8.616;2022-11-20T10:32:02;7.90;99.90
7720;DHT22;3902;49.474;8.616;2022-11-20T10:34:49;7.80;99.90
7720;DHT22;3902;49.474;8.616;2022-11-20T10:37:23;7.80;99.90
7720;DHT22;3902;49.474;8.616;2022-11-20T10:42:57;7.90;99.90
7720;DHT22;3902;49.474;8.616;2022-11-20T10:47:52;8.00;99.90
7720;DHT22;3902;49.474;8.616;2022-11-20T10:50:21;8.00;99.90
7720;DHT22;3902;49.474;8.616;2022-11-20T10:55:43;8.00;99.90
7720;DHT22;3902;49.474;8.616;2022-11-20T10:58:14;8.10;99.90
7720;DHT22;3902;49.474;8.616;2022-11-20T11:00:39;8.10;99.90
7720;DHT22;3902;49.474;8.616;2022-11-20T11:03:22;8.10;99.90
7720;DHT22;3902;49.474;8.616;2022-11-20T11:05:55;8.10;99.90
7720;DHT22;3902;49.474;8.616;2022-11-20T11:08:22;8.10;99.90
7720;DHT22;3902;49.474;8.616;2022-11-20T11:10:59;8.10;99.90
7720;DHT22;3902;49.474;8.616;2022-11-20T11:13:28;8.00;99.90
7720;DHT22;3902;49.474;8.616;2022-11-20T11:15:55;8.10;99.90
7720;DHT22;3902;49.474;8.616;2022-11-20T11:20:54;8.10;99.90
7720;DHT22;3902;49.474;8.616;2022-11-20T11:23:39;8.10;99.90
7720;DHT22;3902;49.474;8.616;2022-11-20T11:26:17;8.10;99.90
7720;DHT22;3902;49.474;8.616;2022-11-20T11:28:53;8.10;99.90
7720;DHT22;3902;49.474;8.616;2022-11-20T11:31:27;8.20;99.90
7720;DHT22;3902;49.474;8.616;2022-11-20T11:34:14;8.40;99.90
7720;DHT22;3902;49.474;8.616;2022-11-20T11:36:40;8.70;99.90
7720;DHT22;3902;49.474;8.616;2022-11-20T11:39:12;9.20;99.90
7720;DHT22;3902;49.474;8.616;2022-11-20T11:41:40;9.70;99.90
7720;DHT22;3902;49.474;8.616;2022-11-20T11:44:24;10.30;99.90
7720;DHT22;3902;49.474;8.616;2022-11-20T11:47:24;11.00;99.90
7720;DHT22;3902;49.474;8.616;2022-11-20T11:50:19;11.90;99.90
7720;DHT22;3902;49.474;8.616;2022-11-20T12:03:37;14.40;99.90
7720;DHT22;3902;49.474;8.616;2022-11-20T12:06:11;14.00;99.90
7720;DHT22;3902;49.474;8.616;2022-11-20T12:11:29;13.00;99.90
7720;DHT22;3902;49.474;8.616;2022-11-20T12:14:02;12.70;99.90
7720;DHT22;3902;49.474;8.616;2022-11-20T12:16:33;12.40;99.90
7720;DHT22;3902;49.474;8.616;2022-11-20T12:19:00;12.20;99.90
7720;DHT22;3902;49.474;8.616;2022-11-20T12:35:44;11.20;99.90
7720;DHT22;3902;49.474;8.616;2022-11-20T12:38:37;11.10;99.90
7720;DHT22;3902;49.474;8.616;2022-11-20T12:41:40;11.00;99.90
7720;DHT22;3902;49.474;8.616;2022-11-20T12:44:42;11.00;99.90
7720;DHT22;3902;49.474;8.616;2022-11-20T12:48:09;11.00;99.90
7720;DHT22;3902;49.474;8.616;2022-11-20T12:50:57;11.00;99.90
7720;DHT22;3902;49.474;8.616;2022-11-20T12:56:52;10.90;99.90
7720;DHT22;3902;49.474;8.616;2022-11-20T13:05:03;10.80;99.90
7720;DHT22;3902;49.474;8.616;2022-11-20T13:07:32;10.70;99.90
7720;DHT22;3902;49.474;8.616;2022-11-20T13:09:59;10.60;99.90
7720;DHT22;3902;49.474;8.616;2022-11-20T13:15:14;10.50;99.90
7720;DHT22;3902;49.474;8.616;2022-11-20T13:20:18;10.40;99.90
7720;DHT22;3902;49.474;8.616;2022-11-20T13:22:47;10.40;99.90
7720;DHT22;3902;49.474;8.616;2022-11-20T13:27:55;10.10;99.90
7720;DHT22;3902;49.474;8.616;2022-11-20T13:30:26;10.10;99.90
7720;DHT22;3902;49.474;8.616;2022-11-20T13:32:58;10.10;99.90
7720;DHT22;3902;49.474;8.616;2022-11-20T13:35:30;10.20;99.90
7720;DHT22;3902;49.474;8.616;2022-11-20T13:38:11;10.20;99.90
7720;DHT22;3902;49.474;8.616;2022-11-20T13:40:57;10.30;99.90
7720;DHT22;3902;49.474;8.616;2022-11-20T13:46:06;10.50;99.90
7720;DHT22;3902;49.474;8.616;2022-11-20T13:48:34;10.60;99.90
7720;DHT22;3902;49.474;8.616;2022-11-20T13:59:32;10.60;99.90
7720;DHT22;3902;49.474;8.616;2022-11-20T14:02:01;10.50;99.90
7720;DHT22;3902;49.474;8.616;2022-11-20T14:04:30;10.50;99.90
7720;DHT22;3902;49.474;8.616;2022-11-20T14:06:57;10.50;99.90
7720;DHT22;3902;49.474;8.616;2022-11-20T14:09:28;10.50;99.90
7720;DHT22;3902;49.474;8.616;2022-11-20T14:11:54;10.50;99.90
7720;DHT22;3902;49.474;8.616;2022-11-20T14:14:23;10.50;99.90
7720;DHT22;3902;49.474;8.616;2022-11-20T14:16:49;10.50;99.90
7720;DHT22;3902;49.474;8.616;2022-11-20T14:19:27;10.40;99.90
7720;DHT22;3902;49.474;8.616;2022-11-20T14:22:06;10.30;99.90
7720;DHT22;3902;49.474;8.616;2022-11-20T14:24:32;10.20;99.90
7720;DHT22;3902;49.474;8.616;2022-11-20T14:26:58;10.10;99.90
7720;DHT22;3902;49.474;8.616;2022-11-20T14:29:33;10.00;99.90
7720;DHT22;3902;49.474;8.616;2022-11-20T14:31:59;10.10;99.90
7720;DHT22;3902;49.474;8.616;2022-11-20T14:34:28;10.00;99.90
7720;DHT22;3902;49.474;8.616;2022-11-20T14:37:01;10.00;99.90
7720;DHT22;3902;49.474;8.616;2022-11-20T14:39:35;10.00;99.90
7720;DHT22;3902;49.474;8.616;2022-11-20T14:42:01;9.90;99.90
7720;DHT22;3902;49.474;8.616;2022-11-20T14:44:30;9.80;99.90
7720;DHT22;3902;49.474;8.616;2022-11-20T14:46:57;9.80;99.90
7720;DHT22;3902;49.474;8.616;2022-11-20T14:49:25;9.70;99.90
7720;DHT22;3902;49.474;8.616;2022-11-20T14:52:01;9.70;99.90
7720;DHT22;3902;49.474;8.616;2022-11-20T14:54:27;9.60;99.90
7720;DHT22;3902;49.474;8.616;2022-11-20T14:56:57;9.60;99.90
7720;DHT22;3902;49.474;8.616;2022-11-20T14:59:25;9.60;99.90
7720;DHT22;3902;49.474;8.616;2022-11-20T15:01:56;9.50;99.90
7720;DHT22;3902;49.474;8.616;2022-11-20T15:04:22;9.50;99.90
7720;DHT22;3902;49.474;8.616;2022-11-20T15:06:52;9.50;99.90
7720;DHT22;3902;49.474;8.616;2022-11-20T15:09:18;9.40;99.90
7720;DHT22;3902;49.474;8.616;2022-11-20T15:11:57;9.40;99.90
7720;DHT22;3902;49.474;8.616;2022-11-20T15:14:24;9.40;99.90
7720;DHT22;3902;49.474;8.616;2022-11-20T15:16:50;9.50;99.90
7720;DHT22;3902;49.474;8.616;2022-11-20T15:19:24;9.30;99.90
7720;DHT22;3902;49.474;8.616;2022-11-20T15:21:50;9.30;99.90
7720;DHT22;3902;49.474;8.616;2022-11-20T15:24:16;9.30;99.90
7720;DHT22;3902;49.474;8.616;2022-11-20T15:26:42;9.30;99.90
7720;DHT22;3902;49.474;8.616;2022-11-20T15:29:10;9.20;99.90
7720;DHT22;3902;49.474;8.616;2022-11-20T15:31:36;9.20;99.90
7720;DHT22;3902;49.474;8.616;2022-11-20T15:34:04;9.20;99.90
7720;DHT22;3902;49.474;8.616;2022-11-20T15:36:30;9.20;99.90
7720;DHT22;3902;49.474;8.616;2022-11-20T15:38:55;9.20;99.90
7720;DHT22;3902;49.474;8.616;2022-11-20T15:41:21;9.10;99.90
7720;DHT22;3902;49.474;8.616;2022-11-20T15:43:47;9.10;99.90
7720;DHT22;3902;49.474;8.616;2022-11-20T15:46:17;9.20;99.90
7720;DHT22;3902;49.474;8.616;2022-11-20T15:48:51;9.20;99.90
7720;DHT22;3902;49.474;8.616;2022-11-20T15:51:32;9.20;99.90
7720;DHT22;3902;49.474;8.616;2022-11-20T15:53:59;9.20;99.90
7720;DHT22;3902;49.474;8.616;2022-11-20T15:56:25;9.20;99.90
7720;DHT22;3902;49.474;8.616;2022-11-20T15:58:51;9.20;99.90
7720;DHT22;3902;49.474;8.616;2022-11-20T16:01:19;9.10;99.90
7720;DHT22;3902;49.474;8.616;2022-11-20T16:03:45;9.10;99.90
7720;DHT22;3902;49.474;8.616;2022-11-20T16:06:11;9.10;99.90
7720;DHT22;3902;49.474;8.616;2022-11-20T16:08:37;9.10;99.90
7720;DHT22;3902;49.474;8.616;2022-11-20T16:11:03;9.10;99.90
7720;DHT22;3902;49.474;8.616;2022-11-20T16:13:31;9.10;99.90
7720;DHT22;3902;49.474;8.616;2022-11-20T16:16:24;9.00;99.90
7720;DHT22;3902;49.474;8.616;2022-11-20T16:18:51;9.00;99.90
7720;DHT22;3902;49.474;8.616;2022-11-20T16:21:17;9.00;99.90
7720;DHT22;3902;49.474;8.616;2022-11-20T16:23:43;9.00;99.90
7720;DHT22;3902;49.474;8.616;2022-11-20T16:26:12;9.00;99.90
7720;DHT22;3902;49.474;8.616;2022-11-20T16:28:37;9.00;99.90
7720;DHT22;3902;49.474;8.616;2022-11-20T16:31:14;9.00;99.90
7720;DHT22;3902;49.474;8.616;2022-11-20T16:33:40;8.90;99.90
7720;DHT22;3902;49.474;8.616;2022-11-20T16:36:13;8.90;99.90
7720;DHT22;3902;49.474;8.616;2022-11-20T16:38:39;8.90;99.90
7720;DHT22;3902;49.474;8.616;2022-11-20T16:41:04;8.90;99.90
7720;DHT22;3902;49.474;8.616;2022-11-20T16:43:30;8.90;99.90
7720;DHT22;3902;49.474;8.616;2022-11-20T16:45:56;8.90;99.90
7720;DHT22;3902;49.474;8.616;2022-11-20T16:48:21;8.90;99.90
7720;DHT22;3902;49.474;8.616;2022-11-20T16:53:12;8.90;99.90
7720;DHT22;3902;49.474;8.616;2022-11-20T16:55:38;8.90;99.90
7720;DHT22;3902;49.474;8.616;2022-11-20T16:58:04;8.90;99.90
7720;DHT22;3902;49.474;8.616;2022-11-20T17:00:29;8.90;99.90
7720;DHT22;3902;49.474;8.616;2022-11-20T17:02:54;8.90;99.90
7720;DHT22;3902;49.474;8.616;2022-11-20T17:05:20;8.90;99.90
7720;DHT22;3902;49.474;8.616;2022-11-20T17:07:45;8.90;99.90
7720;DHT22;3902;49.474;8.616;2022-11-20T17:10:11;8.80;99.90
7720;DHT22;3902;49.474;8.616;2022-11-20T17:12:36;8.80;99.90
7720;DHT22;3902;49.474;8.616;2022-11-20T17:15:02;8.80;99.90
7720;DHT22;3902;49.474;8.616;2022-11-20T17:17:28;8.80;99.90
7720;DHT22;3902;49.474;8.616;2022-11-20T17:19:54;8.80;99.90
7720;DHT22;3902;49.474;8.616;2022-11-20T17:22:19;8.80;99.90
7720;DHT22;3902;49.474;8.616;2022-11-20T17:24:45;8.80;99.90
7720;DHT22;3902;49.474;8.616;2022-11-20T17:27:10;8.80;99.90
7720;DHT22;3902;49.474;8.616;2022-11-20T17:29:36;8.80;99.90
7720;DHT22;3902;49.474;8.616;2022-11-20T17:32:01;8.80;99.90
7720;DHT22;3902;49.474;8.616;2022-11-20T17:34:27;8.80;99.90
7720;DHT22;3902;49.474;8.616;2022-11-20T17:36:52;8.80;99.90
7720;DHT22;3902;49.474;8.616;2022-11-20T17:39:19;8.80;99.90
7720;DHT22;3902;49.474;8.616;2022-11-20T17:41:44;8.80;99.90
7720;DHT22;3902;49.474;8.616;2022-11-20T17:44:30;8.80;99.90
7720;DHT22;3902;49.474;8.616;2022-11-20T17:46:55;8.70;99.90
7720;DHT22;3902;49.474;8.616;2022-11-20T17:49:21;8.70;99.90
7720;DHT22;3902;49.474;8.616;2022-11-20T17:51:47;8.70;99.90
7720;DHT22;3902;49.474;8.616;2022-11-20T17:54:12;8.70;99.90
7720;DHT22;3902;49.474;8.616;2022-11-20T17:56:38;8.70;99.90
7720;DHT22;3902;49.474;8.616;2022-11-20T17:59:22;8.60;99.90
7720;DHT22;3902;49.474;8.616;2022-11-20T18:01:48;8.70;99.90
7720;DHT22;3902;49.474;8.616;2022-11-20T18:04:13;8.70;99.90
7720;DHT22;3902;49.474;8.616;2022-11-20T18:06:39;8.70;99.90